Time;durP1;ratioP1;P1;durP2;ratioP2;P2;SDS_P1;SDS_P2;PMS_P1;PMS_P2;Temp;Humidity;BMP_temperature;BMP_pressure;BME280_temperature;BME280_humidity;BME280_pressure;Samples;Min_cycle;Max_cycle;Signal;HPM_P1;HPM_P2
2022/01/03 00:01:39;;;;;;;2.10;1.70;;;11.80;78.90;;;;;;5025557;28;20067;-72
2022/01/03 00:04:09;;;;;;;3.40;1.67;;;11.80;79.30;;;;;;5047114;28;20243;-72
2022/01/03 00:06:35;;;;;;;3.40;1.83;;;11.80;79.50;;;;;;5031791;28;20765;-72
2022/01/03 00:09:08;;;;;;;2.22;1.80;;;11.80;79.40;;;;;;5041983;28;20566;-72
2022/01/03 00:11:35;;;;;;;2.97;2.00;;;11.80;79.70;;;;;;5043550;28;20033;-72
2022/01/03 00:14:03;;;;;;;2.70;1.50;;;11.80;79.80;;;;;;5027634;28;20482;-72
2022/01/03 00:16:29;;;;;;;2.53;1.70;;;11.80;80.10;;;;;;5027894;28;20032;-73
2022/01/03 00:18:55;;;;;;;4.85;2.08;;;11.70;80.00;;;;;;5049285;28;20067;-72
2022/01/03 00:21:26;;;;;;;3.80;1.83;;;11.70;80.50;;;;;;5045480;28;20558;-72
2022/01/03 00:24:00;;;;;;;2.10;1.50;;;11.70;80.70;;;;;;5041388;28;20568;-72
2022/01/03 00:26:28;;;;;;;4.38;2.08;;;11.70;81.30;;;;;;5042107;28;20032;-73
2022/01/03 00:29:01;;;;;;;4.57;2.55;;;11.60;81.60;;;;;;5028211;28;20029;-72
2022/01/03 00:31:47;;;;;;;2.03;1.60;;;11.60;82.20;;;;;;5044330;28;20038;-73
2022/01/03 00:34:14;;;;;;;3.53;1.85;;;11.50;82.20;;;;;;5043913;28;20029;-72
2022/01/03 00:36:43;;;;;;;2.88;1.70;;;11.50;82.60;;;;;;5031813;28;20044;-73
2022/01/03 00:39:10;;;;;;;2.90;1.73;;;11.50;83.40;;;;;;5041167;28;20009;-72
2022/01/03 00:41:41;;;;;;;2.92;1.67;;;11.50;83.80;;;;;;5035514;28;20021;-72
2022/01/03 00:44:07;;;;;;;2.13;1.83;;;11.50;83.60;;;;;;5044361;28;20040;-72
2022/01/03 00:46:34;;;;;;;;;;;11.50;84.20;;;;;;5034493;28;20013;-73
2022/01/03 00:49:01;;;;;;;3.78;2.38;;;11.50;83.80;;;;;;5049091;28;19955;-72
2022/01/03 00:51:35;;;;;;;5.35;2.20;;;11.50;84.10;;;;;;5036363;28;20104;-73
2022/01/03 00:54:03;;;;;;;1.85;1.60;;;11.60;84.10;;;;;;5041686;28;20017;-72
2022/01/03 00:56:38;;;;;;;4.45;1.80;;;11.60;83.70;;;;;;5037999;28;20418;-72
2022/01/03 00:59:43;;;;;;;3.70;2.08;;;11.70;83.20;;;;;;5049075;28;20025;-72
2022/01/03 01:02:10;;;;;;;3.33;2.03;;;11.80;83.70;;;;;;5031008;28;20033;-72
2022/01/03 01:04:42;;;;;;;4.43;1.98;;;11.80;83.00;;;;;;5040675;28;20378;-72
2022/01/03 01:07:16;;;;;;;3.40;2.00;;;11.80;83.00;;;;;;5046290;28;20033;-73
2022/01/03 01:09:48;;;;;;;3.97;1.90;;;11.80;83.10;;;;;;5040785;28;20492;-72
2022/01/03 01:12:14;;;;;;;4.38;2.47;;;11.80;83.00;;;;;;5040995;28;20104;-73
2022/01/03 01:14:40;;;;;;;4.47;2.23;;;11.80;83.00;;;;;;5040928;28;20546;-72
2022/01/03 01:17:06;;;;;;;3.00;1.87;;;11.80;82.70;;;;;;5048645;28;20643;-73
2022/01/03 01:19:33;;;;;;;;;;;11.90;82.70;;;;;;5041596;28;20373;-73
2022/01/03 01:22:02;;;;;;;3.83;1.70;;;11.90;82.70;;;;;;5026500;28;20775;-74
2022/01/03 01:24:34;;;;;;;3.47;1.83;;;11.90;82.90;;;;;;5037603;28;20466;-72
2022/01/03 01:29:59;;;;;;;4.78;2.55;;;11.80;83.30;;;;;;4964838;28;20550;-72
2022/01/03 01:32:25;;;;;;;;;;;11.80;83.00;;;;;;4952913;28;20704;-73
2022/01/03 01:34:52;;;;;;;3.33;1.98;;;11.80;83.30;;;;;;5043569;28;19916;-73
2022/01/03 01:37:21;;;;;;;5.05;2.17;;;11.80;83.70;;;;;;5040648;28;20111;-72
2022/01/03 01:39:51;;;;;;;4.97;2.03;;;11.70;83.30;;;;;;5034033;28;20036;-72
2022/01/03 01:42:19;;;;;;;3.30;1.85;;;11.70;83.30;;;;;;5022487;28;20034;-72
2022/01/03 01:44:50;;;;;;;2.88;2.38;;;11.80;83.40;;;;;;5039941;28;20481;-72
2022/01/03 01:47:18;;;;;;;3.25;2.08;;;11.80;83.20;;;;;;5040713;28;20040;-73
2022/01/03 01:49:54;;;;;;;2.55;1.83;;;11.80;82.90;;;;;;5039700;28;20063;-72
2022/01/03 01:52:24;;;;;;;1.65;1.48;;;11.80;82.70;;;;;;5045029;28;20036;-72
2022/01/03 01:54:59;;;;;;;3.28;1.92;;;11.90;82.70;;;;;;5039820;28;21116;-73
2022/01/03 01:57:51;;;;;;;4.63;2.28;;;11.90;83.10;;;;;;5039234;28;20390;-73
2022/01/03 02:00:17;;;;;;;4.30;1.70;;;12.00;82.40;;;;;;5007789;28;20195;-73
2022/01/03 02:03:14;;;;;;;3.88;1.88;;;12.00;82.00;;;;;;5041449;28;20957;-72
2022/01/03 02:05:42;;;;;;;3.20;1.80;;;12.00;81.90;;;;;;5042370;28;20083;-73
2022/01/03 02:08:28;;;;;;;3.55;2.17;;;12.00;81.90;;;;;;5050791;28;20025;-73
2022/01/03 02:11:13;;;;;;;3.42;1.80;;;12.00;81.80;;;;;;5060625;28;20311;-72
2022/01/03 02:13:44;;;;;;;2.50;1.88;;;12.10;81.10;;;;;;5046117;28;20020;-72
2022/01/03 02:16:11;;;;;;;4.07;1.85;;;12.10;81.20;;;;;;5047831;28;20025;-70
2022/01/03 02:18:38;;;;;;;4.63;1.77;;;12.10;80.90;;;;;;5040007;28;20729;-70
2022/01/03 02:21:04;;;;;;;4.68;2.10;;;12.20;81.00;;;;;;5043991;28;20448;-70
2022/01/03 02:23:30;;;;;;;3.42;1.85;;;12.10;81.10;;;;;;5051586;28;20158;-71
2022/01/03 02:25:56;;;;;;;1.70;1.60;;;12.20;80.90;;;;;;5056362;28;20024;-70
2022/01/03 02:28:24;;;;;;;;;;;12.20;81.50;;;;;;5056703;28;20024;-70
2022/01/03 02:30:52;;;;;;;2.78;1.73;;;12.20;81.10;;;;;;5046832;28;20387;-71
2022/01/03 02:33:19;;;;;;;3.60;1.67;;;12.10;81.10;;;;;;5057090;28;20037;-70
2022/01/03 02:35:46;;;;;;;2.50;1.80;;;12.10;81.70;;;;;;5043968;28;20743;-70
2022/01/03 02:38:15;;;;;;;3.40;2.10;;;12.10;81.90;;;;;;5062023;28;20347;-70
2022/01/03 02:40:46;;;;;;;2.55;1.77;;;12.00;81.80;;;;;;5040748;28;20045;-72
2022/01/03 02:43:14;;;;;;;4.72;1.80;;;12.00;82.40;;;;;;5046956;28;20024;-72
2022/01/03 02:45:40;;;;;;;4.13;2.00;;;12.00;83.40;;;;;;5041272;28;20024;-72
2022/01/03 02:48:12;;;;;;;2.63;1.80;;;12.00;82.80;;;;;;5053882;28;20028;-72
2022/01/03 02:50:39;;;;;;;3.42;2.10;;;12.00;83.00;;;;;;5050149;28;20501;-73
2022/01/03 02:53:04;;;;;;;;;;;12.00;82.80;;;;;;5045579;28;20082;-72
2022/01/03 02:55:31;;;;;;;2.85;1.75;;;12.00;83.20;;;;;;5042413;28;20350;-73
2022/01/03 02:58:07;;;;;;;2.55;1.92;;;12.00;83.30;;;;;;5046716;28;20024;-72
2022/01/03 03:00:48;;;;;;;1.83;1.70;;;11.90;83.50;;;;;;5040996;28;20414;-73
2022/01/03 03:03:18;;;;;;;3.10;1.90;;;11.90;83.90;;;;;;5047753;28;20020;-72
2022/01/03 03:05:44;;;;;;;4.47;2.13;;;11.90;84.30;;;;;;5044045;28;20437;-73
2022/01/03 03:08:12;;;;;;;1.92;1.70;;;11.80;84.80;;;;;;5043222;28;20024;-72
2022/01/03 03:10:38;;;;;;;4.38;2.00;;;11.80;85.10;;;;;;5043202;28;20047;-72
2022/01/03 03:13:06;;;;;;;3.20;1.77;;;11.80;85.60;;;;;;5046714;28;20031;-72
2022/01/03 03:15:34;;;;;;;3.97;1.88;;;11.70;85.90;;;;;;5041847;28;20032;-73
2022/01/03 03:18:01;;;;;;;2.92;1.85;;;11.70;86.50;;;;;;5035215;28;20103;-72
2022/01/03 03:20:29;;;;;;;2.83;1.90;;;11.70;86.50;;;;;;5027235;28;20139;-72
2022/01/03 03:22:56;;;;;;;6.10;1.95;;;11.70;86.70;;;;;;5049976;28;20127;-73
2022/01/03 03:25:29;;;;;;;2.08;1.88;;;11.70;87.00;;;;;;5046615;28;20470;-72
2022/01/03 03:28:00;;;;;;;3.00;2.00;;;11.60;87.10;;;;;;5027697;28;20121;-72
2022/01/03 03:30:36;;;;;;;4.13;2.22;;;11.60;87.60;;;;;;5046449;28;20551;-73
2022/01/03 03:33:24;;;;;;;3.92;2.15;;;11.60;87.60;;;;;;5042443;28;20070;-72
2022/01/03 03:35:57;;;;;;;3.45;1.77;;;11.50;87.70;;;;;;5037103;28;20163;-73
2022/01/03 03:38:25;;;;;;;4.00;2.15;;;11.50;88.00;;;;;;5034278;28;20033;-73
2022/01/03 03:40:58;;;;;;;4.13;1.95;;;11.50;88.10;;;;;;5027678;28;20684;-72
2022/01/03 03:43:24;;;;;;;3.55;2.13;;;11.50;88.10;;;;;;5048892;28;20025;-72
2022/01/03 03:45:50;;;;;;;2.10;1.90;;;11.50;88.50;;;;;;5041127;28;20091;-73
2022/01/03 03:48:19;;;;;;;1.92;1.58;;;11.40;88.70;;;;;;5044169;28;20020;-72
2022/01/03 03:50:46;;;;;;;3.13;2.20;;;11.30;88.60;;;;;;5046027;28;20071;-72
2022/01/03 03:53:16;;;;;;;6.40;2.38;;;11.40;89.10;;;;;;5043882;28;20027;-73
2022/01/03 03:55:43;;;;;;;4.18;2.05;;;11.40;89.00;;;;;;5041621;28;20127;-72
2022/01/03 03:58:08;;;;;;;;;;;11.40;89.50;;;;;;5048013;28;20040;-72
2022/01/03 04:00:35;;;;;;;3.33;2.10;;;11.40;89.60;;;;;;5042146;28;20323;-73
2022/01/03 04:03:02;;;;;;;;;;;11.30;90.00;;;;;;5043641;28;20693;-72
2022/01/03 04:05:27;;;;;;;7.68;2.05;;;11.30;90.10;;;;;;5041195;28;19904;-73
2022/01/03 04:07:53;;;;;;;3.43;1.87;;;11.20;90.20;;;;;;5042968;28;20036;-73
2022/01/03 04:10:21;;;;;;;5.07;2.07;;;11.20;90.40;;;;;;5046158;28;20500;-72
2022/01/03 04:12:46;;;;;;;2.88;1.73;;;11.20;90.50;;;;;;5042869;28;20557;-73
2022/01/03 04:15:17;;;;;;;4.00;1.93;;;11.30;90.50;;;;;;5044638;28;20021;-72
2022/01/03 04:17:44;;;;;;;2.20;1.70;;;11.30;90.40;;;;;;5038648;28;20099;-72
2022/01/03 04:20:13;;;;;;;2.63;1.77;;;11.30;90.70;;;;;;5031099;28;20028;-72
2022/01/03 04:22:39;;;;;;;3.33;1.95;;;11.30;90.40;;;;;;5023603;28;20056;-73
2022/01/03 04:25:07;;;;;;;2.30;1.80;;;11.30;90.30;;;;;;5047701;28;20013;-72
2022/01/03 04:27:33;;;;;;;3.85;1.75;;;11.30;90.30;;;;;;5022660;28;20383;-73
2022/01/03 04:29:58;;;;;;;2.60;1.70;;;11.40;90.30;;;;;;5044778;28;20071;-72
2022/01/03 04:32:24;;;;;;;4.73;1.50;;;11.40;90.30;;;;;;5041538;28;20044;-75
2022/01/03 04:34:50;;;;;;;3.53;1.60;;;11.50;90.40;;;;;;5043851;28;20028;-72
2022/01/03 04:37:17;;;;;;;4.50;1.73;;;11.50;90.40;;;;;;5047836;28;20021;-72
2022/01/03 04:39:43;;;;;;;1.90;1.27;;;11.50;90.80;;;;;;5036575;28;21512;-72
2022/01/03 04:42:09;;;;;;;3.05;1.50;;;11.50;91.10;;;;;;5044638;28;20025;-74
2022/01/03 04:44:35;;;;;;;4.35;1.90;;;11.50;91.10;;;;;;5042857;28;20028;-72
2022/01/03 04:47:04;;;;;;;;;;;11.60;91.40;;;;;;5043738;28;20028;-73
2022/01/03 04:49:31;;;;;;;2.30;1.67;;;11.70;91.40;;;;;;5037771;28;20276;-73
2022/01/03 04:51:56;;;;;;;;;;;11.70;91.60;;;;;;5035385;28;20027;-73
2022/01/03 04:54:22;;;;;;;2.65;1.50;;;11.70;91.70;;;;;;5052612;28;19912;-73
2022/01/03 04:56:48;;;;;;;2.73;1.63;;;11.80;91.70;;;;;;5043110;28;20041;-74
2022/01/03 04:59:13;;;;;;;1.40;1.20;;;11.70;91.70;;;;;;5047345;28;20025;-72
2022/01/03 05:01:39;;;;;;;2.58;1.65;;;11.80;92.10;;;;;;5040328;28;20029;-73
2022/01/03 05:04:05;;;;;;;1.50;1.30;;;11.80;91.80;;;;;;5027975;28;20036;-72
2022/01/03 05:06:30;;;;;;;4.27;1.93;;;11.80;91.90;;;;;;5041336;28;20036;-73
2022/01/03 05:08:56;;;;;;;3.60;1.50;;;11.80;91.80;;;;;;5046633;28;20056;-72
2022/01/03 05:11:23;;;;;;;3.13;1.30;;;11.80;91.50;;;;;;5042737;28;20036;-72
2022/01/03 05:13:48;;;;;;;;;;;11.90;91.30;;;;;;5041752;28;20024;-72
2022/01/03 05:16:16;;;;;;;3.45;1.67;;;11.90;91.10;;;;;;5045363;28;19912;-72
2022/01/03 05:18:43;;;;;;;4.05;1.40;;;11.90;91.00;;;;;;5039008;28;20021;-73
2022/01/03 05:21:09;;;;;;;2.40;1.58;;;11.90;91.00;;;;;;5043671;28;20106;-73
2022/01/03 05:23:35;;;;;;;2.77;1.40;;;11.90;91.10;;;;;;5038184;28;20094;-73
2022/01/03 05:26:06;;;;;;;2.67;1.30;;;11.90;91.10;;;;;;5041219;28;20013;-72
2022/01/03 05:28:34;;;;;;;2.45;1.52;;;11.90;91.00;;;;;;5037251;28;20492;-72
2022/01/03 05:31:00;;;;;;;3.08;1.27;;;11.90;91.00;;;;;;5031851;28;20021;-75
2022/01/03 05:33:27;;;;;;;4.70;1.37;;;11.90;90.80;;;;;;5048547;28;20020;-73
2022/01/03 05:35:54;;;;;;;4.18;1.38;;;11.80;90.70;;;;;;5035930;28;20263;-72
2022/01/03 05:38:20;;;;;;;;;;;11.90;90.70;;;;;;5044077;28;20125;-74
2022/01/03 05:40:45;;;;;;;2.88;1.73;;;11.90;90.60;;;;;;5043333;28;19909;-73
2022/01/03 05:43:11;;;;;;;1.93;1.27;;;11.90;90.60;;;;;;5044987;28;20055;-73
2022/01/03 05:45:37;;;;;;;2.93;1.10;;;12.00;90.50;;;;;;5042452;28;20067;-71
2022/01/03 05:48:03;;;;;;;3.00;1.25;;;11.90;90.50;;;;;;5046958;28;20462;-72
2022/01/03 05:50:29;;;;;;;3.17;1.27;;;11.90;90.40;;;;;;5043261;28;20213;-71
2022/01/03 05:53:02;;;;;;;2.20;1.10;;;11.90;90.50;;;;;;5028399;28;20056;-71
2022/01/03 05:55:28;;;;;;;2.45;1.10;;;11.80;90.70;;;;;;5041644;28;20309;-72
2022/01/03 05:57:54;;;;;;;1.27;1.15;;;11.80;90.70;;;;;;5048759;28;20029;-73
2022/01/03 06:00:24;;;;;;;2.97;1.27;;;11.80;90.70;;;;;;5048595;28;20071;-72
2022/01/03 06:02:57;;;;;;;2.65;1.15;;;11.80;90.70;;;;;;5044281;28;20024;-75
2022/01/03 06:08:04;;;;;;;2.38;1.15;;;11.80;90.70;;;;;;5042872;28;20494;-72
2022/01/03 06:10:30;;;;;;;1.65;1.02;;;11.80;90.50;;;;;;5045141;28;20044;-71
2022/01/03 06:12:56;;;;;;;2.80;1.38;;;11.80;90.60;;;;;;5046105;28;20128;-71
2022/01/03 06:15:24;;;;;;;4.13;1.30;;;11.80;90.60;;;;;;5048181;28;20096;-73
2022/01/03 06:17:50;;;;;;;2.63;1.30;;;11.80;90.60;;;;;;5041104;28;20166;-72
2022/01/03 06:20:16;;;;;;;;;;;11.80;90.70;;;;;;5040277;28;20021;-73
2022/01/03 06:22:42;;;;;;;1.88;1.35;;;11.70;90.70;;;;;;5042078;28;19908;-72
2022/01/03 06:25:10;;;;;;;6.20;1.60;;;11.70;90.80;;;;;;5046637;28;20053;-72
2022/01/03 06:27:38;;;;;;;3.50;1.40;;;11.70;91.00;;;;;;5044170;28;20040;-72
2022/01/03 06:30:05;;;;;;;1.85;1.20;;;11.60;91.10;;;;;;5047287;28;20031;-72
2022/01/03 06:32:31;;;;;;;3.13;1.20;;;11.60;91.30;;;;;;5029561;28;20178;-72
2022/01/03 06:34:57;;;;;;;1.30;1.10;;;11.60;91.30;;;;;;5047265;28;20092;-72
2022/01/03 06:37:23;;;;;;;2.87;1.30;;;11.50;91.50;;;;;;5023946;28;20123;-71
2022/01/03 06:39:49;;;;;;;1.47;1.17;;;11.50;91.40;;;;;;5042079;28;20341;-71
2022/01/03 06:42:15;;;;;;;;;;;11.50;91.50;;;;;;5047757;28;20600;-72
2022/01/03 06:44:43;;;;;;;2.35;1.38;;;11.50;91.50;;;;;;5046222;28;19987;-72
2022/01/03 06:47:10;;;;;;;2.85;1.20;;;11.50;91.50;;;;;;5034626;28;20528;-71
2022/01/03 06:49:36;;;;;;;3.38;1.55;;;11.50;91.70;;;;;;5038504;28;20124;-71
2022/01/03 06:52:04;;;;;;;4.70;1.70;;;11.50;91.80;;;;;;5051231;28;20024;-72
2022/01/03 06:54:32;;;;;;;1.30;1.20;;;11.50;91.70;;;;;;5032253;28;20801;-71
2022/01/03 06:56:59;;;;;;;2.10;1.38;;;11.50;91.70;;;;;;5044055;28;20024;-71
2022/01/03 06:59:24;;;;;;;2.95;1.23;;;11.50;91.90;;;;;;5033951;28;20033;-71
2022/01/03 07:01:50;;;;;;;3.53;1.30;;;11.50;92.00;;;;;;5042688;28;20025;-72
2022/01/03 07:04:16;;;;;;;2.63;1.30;;;11.40;92.20;;;;;;5044401;28;20367;-73
2022/01/03 07:06:42;;;;;;;4.85;1.30;;;11.50;92.20;;;;;;5038032;28;20090;-73
2022/01/03 07:09:07;;;;;;;5.37;1.57;;;11.60;92.10;;;;;;5043288;28;20029;-72
2022/01/03 07:11:36;;;;;;;2.50;1.13;;;11.60;92.30;;;;;;5038846;28;20033;-72
2022/01/03 07:18:56;;;;;;;4.63;1.77;;;11.60;92.20;;;;;;5049659;28;20808;-71
2022/01/03 07:19:40;;;;;;;2.60;0.97;;;11.70;92.30;;;;;;5041689;28;20122;-71
2022/01/03 07:22:08;;;;;;;2.30;1.42;;;11.70;92.20;;;;;;5046582;28;20727;-71
2022/01/03 07:24:38;;;;;;;2.85;1.48;;;11.80;92.00;;;;;;5043687;28;20039;-72
2022/01/03 07:27:07;;;;;;;3.42;1.30;;;11.80;92.00;;;;;;5055597;28;20378;-71
2022/01/03 07:29:32;;;;;;;2.80;1.33;;;11.90;91.90;;;;;;5049508;28;20040;-71
2022/01/03 07:31:59;;;;;;;1.63;0.90;;;11.90;91.90;;;;;;5052184;28;20029;-71
2022/01/03 07:34:25;;;;;;;2.00;1.35;;;11.90;91.90;;;;;;5048561;28;20027;-71
2022/01/03 07:36:51;;;;;;;4.23;1.50;;;11.90;91.90;;;;;;5043610;28;20013;-71
2022/01/03 07:39:17;;;;;;;1.50;1.30;;;11.90;91.90;;;;;;5052839;28;20274;-72
2022/01/03 07:41:43;;;;;;;5.18;1.20;;;12.00;91.80;;;;;;5041440;28;20044;-72
2022/01/03 07:44:10;;;;;;;4.63;1.63;;;12.00;91.90;;;;;;5053883;28;20021;-71
2022/01/03 07:46:36;;;;;;;5.13;1.80;;;12.00;91.90;;;;;;5039990;28;20032;-71
2022/01/03 07:49:03;;;;;;;2.27;1.30;;;12.00;92.10;;;;;;5047250;28;20021;-71
2022/01/03 07:51:29;;;;;;;1.90;1.40;;;12.00;92.00;;;;;;5050100;28;20453;-72
2022/01/03 07:53:55;;;;;;;2.70;1.60;;;12.10;92.10;;;;;;5048292;28;20040;-72
2022/01/03 07:56:22;;;;;;;5.97;1.77;;;12.10;92.10;;;;;;5045370;28;20068;-71
2022/01/03 07:58:48;;;;;;;2.22;1.35;;;12.10;92.10;;;;;;5042733;28;20288;-71
2022/01/03 08:01:14;;;;;;;5.53;1.50;;;12.20;92.10;;;;;;5044302;28;20025;-71
2022/01/03 08:03:40;;;;;;;2.85;1.58;;;12.30;91.80;;;;;;5038872;28;20370;-71
2022/01/03 08:06:09;;;;;;;3.30;1.65;;;12.40;91.70;;;;;;5034748;28;20600;-71
2022/01/03 08:08:37;;;;;;;2.30;1.30;;;12.50;91.70;;;;;;5038187;28;20100;-71
2022/01/03 08:11:03;;;;;;;4.25;1.90;;;12.50;91.90;;;;;;5049348;28;20017;-71
2022/01/03 08:13:28;;;;;;;3.40;1.70;;;12.60;92.00;;;;;;5046325;28;20051;-71
2022/01/03 08:15:54;;;;;;;3.27;1.53;;;12.60;91.50;;;;;;5040986;28;20021;-72
2022/01/03 08:18:21;;;;;;;3.27;2.13;;;12.70;91.40;;;;;;5044690;28;20093;-71
2022/01/03 08:20:46;;;;;;;;;;;12.80;91.20;;;;;;5045227;28;20053;-72
2022/01/03 08:23:12;;;;;;;3.28;1.70;;;13.30;90.70;;;;;;5025482;28;20046;-72
2022/01/03 08:25:38;;;;;;;2.20;1.47;;;13.90;89.00;;;;;;5037295;28;20017;-72
2022/01/03 08:28:05;;;;;;;2.85;1.65;;;14.60;85.90;;;;;;5026598;28;20074;-72
2022/01/03 08:30:32;;;;;;;4.20;1.42;;;15.30;81.60;;;;;;5045179;28;20044;-72
2022/01/03 08:32:58;;;;;;;1.83;1.30;;;16.20;76.50;;;;;;5046583;28;20039;-72
2022/01/03 08:35:24;;;;;;;1.88;1.10;;;17.20;71.00;;;;;;5041118;28;20021;-72
2022/01/03 08:37:51;;;;;;;2.67;1.08;;;18.00;65.20;;;;;;5028326;28;21442;-72
2022/01/03 08:40:18;;;;;;;3.58;1.15;;;18.80;60.10;;;;;;5050539;28;20024;-72
2022/01/03 08:42:43;;;;;;;2.35;1.30;;;19.00;59.50;;;;;;5041073;28;20055;-72
2022/01/03 08:45:09;;;;;;;2.00;1.38;;;19.40;57.00;;;;;;5039129;28;20150;-72
2022/01/03 08:47:35;;;;;;;5.95;2.40;;;19.70;54.70;;;;;;5039304;28;20546;-72
2022/01/03 08:50:01;;;;;;;2.22;1.35;;;20.80;52.40;;;;;;5044638;28;20679;-74
2022/01/03 08:52:27;;;;;;;3.28;1.60;;;21.60;49.80;;;;;;5041943;28;20086;-74
2022/01/03 08:54:53;;;;;;;4.57;1.40;;;22.00;48.20;;;;;;5040387;28;20085;-72
2022/01/03 08:57:21;;;;;;;1.58;1.05;;;22.10;46.40;;;;;;5039997;28;20478;-74
2022/01/03 08:59:47;;;;;;;1.65;1.15;;;22.20;46.00;;;;;;5039281;28;20037;-75
2022/01/03 09:02:16;;;;;;;1.63;0.88;;;22.60;45.70;;;;;;5044414;28;20098;-75
2022/01/03 09:04:42;;;;;;;2.75;1.15;;;22.50;45.10;;;;;;5037561;28;20798;-74
2022/01/03 09:07:08;;;;;;;2.47;1.40;;;22.30;45.00;;;;;;5039897;28;20017;-72
2022/01/03 09:09:34;;;;;;;2.47;0.98;;;22.10;45.00;;;;;;5036505;28;20551;-75
2022/01/03 09:12:02;;;;;;;5.18;1.15;;;21.90;44.70;;;;;;5036200;28;20112;-74
2022/01/03 09:14:29;;;;;;;1.80;1.13;;;21.60;45.60;;;;;;5029032;28;20024;-74
2022/01/03 09:16:55;;;;;;;3.20;1.00;;;21.60;45.90;;;;;;5038651;28;20054;-75
2022/01/03 09:19:21;;;;;;;2.70;1.23;;;21.70;45.70;;;;;;5032980;28;20024;-74
2022/01/03 09:21:48;;;;;;;1.67;1.08;;;21.50;45.40;;;;;;5020344;28;20036;-75
2022/01/03 09:29:53;;;;;;;1.88;1.10;;;22.10;45.00;;;;;;5038596;28;20048;-73
2022/01/03 09:32:19;;;;;;;2.10;1.15;;;22.60;44.10;;;;;;5041840;28;20026;-73
2022/01/03 09:34:45;;;;;;;2.30;0.95;;;22.70;43.30;;;;;;5024364;28;20025;-73
2022/01/03 09:37:12;;;;;;;;;;;22.70;43.40;;;;;;5040599;28;20067;-74
2022/01/03 09:39:39;;;;;;;3.15;1.23;;;22.90;43.30;;;;;;5039330;28;19908;-74
2022/01/03 09:42:10;;;;;;;2.65;1.20;;;23.30;42.70;;;;;;5023621;28;20024;-73
2022/01/03 09:44:36;;;;;;;2.35;1.08;;;23.50;42.10;;;;;;5035167;28;20362;-73
2022/01/03 09:47:03;;;;;;;;;;;23.70;41.50;;;;;;5040868;28;20029;-73
2022/01/03 09:49:34;;;;;;;1.77;1.20;;;23.60;41.30;;;;;;5027271;28;20379;-73
2022/01/03 09:52:03;;;;;;;2.38;1.20;;;23.40;41.30;;;;;;5041569;28;20455;-73
2022/01/03 09:54:29;;;;;;;1.75;1.00;;;23.20;42.40;;;;;;5044872;28;20036;-73
2022/01/03 09:56:59;;;;;;;1.73;0.90;;;22.80;42.80;;;;;;5034553;28;20104;-73
2022/01/03 09:59:25;;;;;;;3.05;1.40;;;22.90;42.40;;;;;;5042900;28;20612;-73
2022/01/03 10:01:53;;;;;;;;;;;22.30;42.50;;;;;;5041000;28;20031;-73
2022/01/03 10:04:19;;;;;;;4.03;1.08;;;21.40;44.20;;;;;;5028244;28;19913;-74
2022/01/03 10:06:45;;;;;;;1.75;1.00;;;21.10;45.10;;;;;;5037772;28;20036;-73
2022/01/03 10:09:12;;;;;;;2.67;1.08;;;21.10;45.80;;;;;;5039439;28;20743;-74
2022/01/03 10:11:38;;;;;;;4.25;1.10;;;20.80;46.20;;;;;;5041830;28;20642;-73
2022/01/03 10:14:04;;;;;;;2.50;1.30;;;20.50;48.60;;;;;;5036545;28;20021;-73
2022/01/03 10:16:30;;;;;;;3.47;1.10;;;20.80;47.80;;;;;;5044883;28;20043;-73
2022/01/03 10:18:57;;;;;;;2.15;1.00;;;21.30;46.70;;;;;;5049040;28;20016;-73
2022/01/03 10:21:47;;;;;;;2.17;1.10;;;21.50;46.20;;;;;;5047672;28;20033;-73
2022/01/03 10:24:15;;;;;;;1.85;0.98;;;21.20;46.30;;;;;;5050842;28;20098;-73
2022/01/03 10:26:43;;;;;;;2.25;0.88;;;21.00;46.40;;;;;;5044385;28;20078;-74
2022/01/03 10:29:20;;;;;;;1.73;1.08;;;20.60;47.00;;;;;;5051212;28;20019;-73
2022/01/03 10:31:52;;;;;;;2.22;1.38;;;20.50;47.00;;;;;;5023943;28;20056;-73
2022/01/03 10:34:20;;;;;;;1.55;0.90;;;20.40;47.60;;;;;;5039498;28;20025;-75
2022/01/03 10:36:48;;;;;;;1.35;1.00;;;20.50;47.80;;;;;;5034926;28;20119;-75
2022/01/03 10:39:18;;;;;;;1.02;0.85;;;20.90;47.30;;;;;;5050313;28;20021;-73
2022/01/03 10:41:46;;;;;;;2.67;1.30;;;20.70;46.80;;;;;;5045098;28;20017;-73
2022/01/03 10:44:29;;;;;;;2.47;1.38;;;20.30;47.70;;;;;;5041540;28;20627;-73
2022/01/03 10:46:56;;;;;;;1.20;0.90;;;20.40;48.00;;;;;;5037486;28;20039;-73
2022/01/03 10:49:25;;;;;;;2.25;1.05;;;20.20;48.60;;;;;;5034388;28;20032;-73
2022/01/03 10:51:51;;;;;;;1.42;1.13;;;20.20;48.20;;;;;;5035173;28;20070;-74
2022/01/03 10:54:18;;;;;;;1.42;0.95;;;20.20;49.00;;;;;;5039821;28;20032;-73
2022/01/03 10:56:49;;;;;;;1.25;0.90;;;20.10;48.10;;;;;;5044099;28;20123;-74
2022/01/03 10:59:21;;;;;;;5.53;1.05;;;20.00;48.30;;;;;;5043477;28;20036;-73
2022/01/03 11:01:57;;;;;;;3.45;0.80;;;20.00;48.90;;;;;;5044080;28;20107;-73
2022/01/03 11:04:35;;;;;;;2.30;0.70;;;19.70;48.60;;;;;;5045199;28;20036;-73
2022/01/03 11:13:12;;;;;;;1.50;0.80;;;18.30;52.00;;;;;;5047199;28;20659;-73
2022/01/03 11:15:59;;;;;;;4.30;1.00;;;18.20;53.00;;;;;;5046752;28;20018;-73
2022/01/03 11:18:28;;;;;;;1.27;0.70;;;17.90;53.70;;;;;;5049281;28;20471;-73
2022/01/03 11:21:16;;;;;;;2.97;1.00;;;17.70;54.30;;;;;;5045250;28;20040;-73
2022/01/03 11:23:43;;;;;;;1.40;0.75;;;17.50;55.10;;;;;;5048725;28;20020;-73
2022/01/03 11:26:18;;;;;;;1.73;0.80;;;17.60;55.50;;;;;;5050181;28;20146;-72
2022/01/03 11:28:45;;;;;;;2.53;0.95;;;17.50;55.90;;;;;;5042892;28;20017;-73
2022/01/03 11:31:13;;;;;;;1.48;0.90;;;17.30;56.50;;;;;;5051274;28;20652;-72
2022/01/03 11:33:40;;;;;;;1.20;0.85;;;17.20;57.00;;;;;;5048840;28;20020;-73
2022/01/03 11:36:06;;;;;;;1.30;0.70;;;17.10;57.20;;;;;;5057104;28;20013;-72
2022/01/03 11:38:35;;;;;;;2.95;0.70;;;16.80;58.40;;;;;;5047010;28;20470;-73
2022/01/03 11:41:08;;;;;;;1.75;0.68;;;16.30;60.10;;;;;;5056755;28;20385;-73
2022/01/03 11:43:37;;;;;;;1.40;0.70;;;15.80;62.40;;;;;;5057807;28;20036;-72
2022/01/03 11:46:04;;;;;;;1.15;0.70;;;15.40;64.60;;;;;;5046241;28;20031;-72
2022/01/03 11:48:31;;;;;;;1.75;0.60;;;15.10;67.40;;;;;;5057683;28;20051;-73
2022/01/03 11:51:02;;;;;;;1.35;0.47;;;15.20;69.80;;;;;;5054008;28;20548;-72
2022/01/03 11:53:33;;;;;;;2.33;0.65;;;15.30;68.70;;;;;;5048971;28;21266;-72
2022/01/03 11:56:09;;;;;;;1.95;0.70;;;15.50;69.40;;;;;;5051160;28;20019;-73
2022/01/03 11:58:52;;;;;;;3.03;0.80;;;15.60;68.60;;;;;;5058420;28;20114;-73
2022/01/03 12:04:17;;;;;;;2.58;1.00;;;16.00;67.30;;;;;;5049117;28;20126;-73
2022/01/03 12:06:44;;;;;;;2.00;0.68;;;16.00;66.70;;;;;;5045264;28;20068;-73
2022/01/03 12:09:13;;;;;;;3.30;1.70;;;16.10;66.20;;;;;;5045043;28;20066;-74
2022/01/03 12:11:53;;;;;;;4.10;1.20;;;16.00;66.60;;;;;;5045802;28;20031;-73
2022/01/03 12:14:24;;;;;;;1.13;0.40;;;16.00;66.90;;;;;;5037637;28;20056;-72
2022/01/03 12:17:04;;;;;;;1.05;0.68;;;16.00;66.70;;;;;;5039208;28;20028;-72
2022/01/03 12:19:37;;;;;;;1.00;0.60;;;15.80;67.70;;;;;;5050373;28;20056;-72
2022/01/03 12:22:17;;;;;;;2.17;1.23;;;15.70;68.60;;;;;;5048637;28;20032;-73
2022/01/03 12:24:48;;;;;;;0.63;0.63;;;15.60;69.10;;;;;;5044037;28;20024;-73
2022/01/03 12:27:14;;;;;;;2.00;1.15;;;15.70;69.00;;;;;;5047785;28;20744;-72
2022/01/03 12:29:57;;;;;;;3.05;1.52;;;15.70;69.30;;;;;;5044671;28;20028;-73
2022/01/03 12:32:32;;;;;;;1.65;0.38;;;15.50;69.70;;;;;;5037421;28;20033;-70
2022/01/03 12:35:10;;;;;;;2.70;0.80;;;15.40;70.40;;;;;;5041820;28;20013;-70
2022/01/03 12:37:42;;;;;;;2.10;0.70;;;15.30;71.60;;;;;;5048511;28;20021;-70
2022/01/03 12:40:12;;;;;;;1.90;0.98;;;15.30;71.90;;;;;;5046048;28;20013;-73
2022/01/03 12:42:52;;;;;;;2.28;0.90;;;15.20;72.60;;;;;;5044807;28;20041;-72
2022/01/03 12:45:29;;;;;;;1.75;0.82;;;15.10;73.80;;;;;;5050261;28;20099;-72
2022/01/03 12:48:15;;;;;;;;;;;15.00;75.00;;;;;;5047048;28;20365;-72
2022/01/03 12:50:53;;;;;;;1.55;0.70;;;14.70;75.90;;;;;;5041670;28;19904;-71
2022/01/03 12:53:27;;;;;;;1.75;0.70;;;14.70;77.40;;;;;;5050145;28;20048;-70
2022/01/03 12:55:57;;;;;;;2.50;0.90;;;14.60;78.10;;;;;;5023210;28;20363;-70
2022/01/03 12:58:22;;;;;;;2.22;0.90;;;14.40;79.30;;;;;;5047022;28;20021;-73
2022/01/03 13:00:54;;;;;;;6.07;1.87;;;14.40;80.50;;;;;;5051770;28;20512;-73
2022/01/03 13:03:40;;;;;;;3.30;0.80;;;14.50;80.10;;;;;;5047027;28;20188;-73
2022/01/03 13:06:13;;;;;;;2.72;1.00;;;14.50;80.30;;;;;;5054860;28;20027;-72
2022/01/03 13:08:47;;;;;;;2.25;0.70;;;14.60;80.40;;;;;;5045148;28;20108;-73
2022/01/03 13:11:25;;;;;;;2.63;0.60;;;14.50;79.60;;;;;;5045594;28;20075;-72
2022/01/03 13:13:53;;;;;;;2.20;0.70;;;14.50;79.90;;;;;;5046411;28;20028;-72
2022/01/03 13:16:29;;;;;;;2.70;0.95;;;14.50;80.00;;;;;;5046111;28;20036;-72
2022/01/03 13:19:04;;;;;;;4.68;1.45;;;14.50;79.90;;;;;;5051266;28;20059;-73
2022/01/03 13:21:35;;;;;;;1.63;1.15;;;14.50;79.60;;;;;;5040011;28;20761;-73
2022/01/03 13:24:08;;;;;;;2.33;0.70;;;14.40;79.40;;;;;;5046902;28;20075;-72